Flight Track Log - Related Links

Times and Time Zones

All times are in EDT time to prevent confusion due to time zone crossing. See the N44566 flight status page for this flight to view local times or setup timezone preferences in your user account.


Time Position Orientation Groundspeed Altitude Reporting Facility
EDT Latitude Longitude Course Direction KTS MPH feet Rate Location/Type
Sat 09:24:37 PM 41.7017 -72.6697 210° Southwest 67 77 1,200  Level Boston Center
Sat 09:25:38 PM 41.6847 -72.6897 221° Southwest 78 90 1,700 433 Climbing Boston Center
Sat 09:26:14 PM 41.6758 -72.7008 223° Southwest 77 89 1,900 442 Climbing Boston Center
Sat 09:27:13 PM 41.6669 -72.7261 245° Southwest 77 89 2,400 504 Climbing Boston Center
Sat 09:28:13 PM 41.6578 -72.7533 246° West 78 90 2,900 387 Climbing Boston Center
Sat 09:29:17 PM 41.6372 -72.7661 205° Southwest 81 93 3,200 344 Climbing Boston Center
Sat 09:30:00 PM 41.5480 -72.7946 210° Southwest  Level Estimated
Sat 09:30:15 PM 41.6150 -72.7497 151° Southeast 88 101 3,600  Level Boston Center
Sat 09:31:18 PM 41.5997 -72.7225 127° Southeast 90 104 4,000 387 Climbing Boston Center
Sat 09:32:19 PM 41.5742 -72.7203 176° South 92 106 4,400 298 Climbing Boston Center
Sat 09:33:19 PM 41.5467 -72.7314 197° South 98 113 4,600 50 Climbing Boston Center
Sat 09:34:20 PM 41.5225 -72.7517 212° Southwest 102 117 4,500 -49 Descending Boston Center
Sat 09:35:21 PM 41.4994 -72.7644 203° Southwest 100 115 4,500 49 Level Boston Center
Sat 09:36:22 PM 41.4711 -72.7514 161° South 99 114 4,600 49 Climbing Boston Center
Sat 09:37:23 PM 41.4422 -72.7514 180° South 103 119 4,600  Level Boston Center
Sat 09:38:24 PM 41.4108 -72.7475 175° South 110 127 4,600 -50 Level Boston Center
Sat 09:39:24 PM 41.3817 -72.7372 165° South 105 121 4,500 -50 Descending Boston Center
Sat 09:40:25 PM 41.3603 -72.7106 137° Southeast 104 120 4,500 49 Level Boston Center
Sat 09:41:26 PM 41.3386 -72.6847 138° Southeast 109 125 4,600  Climbing Boston Center
Sat 09:42:27 PM 41.3089 -72.6958 196° South 111 128 4,500 -50 Descending Boston Center
Sat 09:43:26 PM 41.2794 -72.6961 180° South 109 125 4,500  Level Boston Center
Sat 09:44:27 PM 41.2703 -72.7292 250° West 100 115 4,500  Level Boston Center
Sat 09:45:28 PM 41.2656 -72.7625 259° West 93 107 4,500  Level Boston Center
Sat 09:46:28 PM 41.2661 -72.7983 271° West 96 110 4,500  Level Boston Center
Sat 09:47:31 PM 41.2653 -72.8331 268° West 95 109 4,500 48 Level Boston Center
Sat 09:48:32 PM 41.2547 -72.8653 246° West 96 110 4,600 50 Climbing Boston Center
Sat 09:49:30 PM 41.2431 -72.8986 245° Southwest 98 113 4,600 -50 Level Boston Center
Sat 09:50:33 PM 41.2342 -72.9339 251° West 101 116 4,500 -48 Descending Boston Center
Sat 09:51:34 PM 41.2269 -72.9681 254° West 98 113 4,500  Level Boston Center
Sat 09:52:32 PM 41.2217 -73.0028 259° West 97 112 4,500  Level Boston Center
Sat 09:53:35 PM 41.2111 -73.0344 246° West 96 110 4,500  Level Boston Center
Sat 09:54:36 PM 41.1875 -73.0692 228° Southwest 107 123 4,500  Level Boston Center
Sat 09:55:57 PM 41.1667 -73.1167 240° Southwest 102 117 4,500 -164 Level New York TRACON
Sat 09:57:39 PM 41.1228 -73.1461 207° Southwest 109 125 4,000 -405 Descending Boston Center
Sat 09:58:40 PM 41.0953 -73.1703 214° Southwest 115 132 3,400 -492 Descending Boston Center
Sat 09:59:41 PM 41.0697 -73.1925 213° Southwest 114 131 3,000 -353 Descending Boston Center
Sat 10:00:39 PM 41.0458 -73.2156 216° Southwest 110 127 2,700 -153 Descending Boston Center
Sat 10:01:39 PM 41.0231 -73.2356 214° Southwest 105 121 2,700  Level Boston Center
Sat 10:02:41 PM 41.0008 -73.2558 215° Southwest 101 116 2,700  Level Boston Center
Sat 10:03:43 PM 40.9786 -73.2744 212° Southwest 98 113 2,700  Level Boston Center
Sat 10:04:42 PM 40.9578 -73.2967 219° Southwest 97 112 2,700  Level Boston Center
Sat 10:05:45 PM 40.9361 -73.3164 215° Southwest 96 110 2,700  Level Boston Center
Sat 10:06:45 PM 40.9147 -73.3358 214° Southwest 94 108 2,700  Level Boston Center
Sat 10:07:46 PM 40.8903 -73.3631 220° Southwest 95 109 2,700 -98 Level Boston Center
Sat 10:08:47 PM 40.8714 -73.3878 225° Southwest 96 110 2,500 -347 Descending Boston Center
Sat 10:09:47 PM 40.8519 -73.4169 229° Southwest 100 115 2,000 -492 Descending Boston Center
Sat 10:10:49 PM 40.8256 -73.4258 194° South 107 123 1,500 -443 Descending Boston Center
Sat 10:11:49 PM 40.7967 -73.4169 167° South 109 125 1,100 -298 Descending Boston Center
Sat 10:12:50 PM 40.7703 -73.4172 180° South 103 119 900 -197 Descending Boston Center
Sat 10:14:00 PM 40.7423 -73.4082 166° South  Level FlightAware Approximate
Sat 10:21:00 PM 40.7288 -73.4134 201° Southwest  Level Estimated
Sat 10:22:00 PM 40.7288 -73.4134 201° Southwest  Level Estimated
Sat 10:23:00 PM 40.7288 -73.4134 201° Southwest  Level Estimated
Sat 10:24:00 PM 40.7288 -73.4134 201° Southwest  Level Estimated

Login

Don't have an account? Register now (free) for customized features, flight alerts, and more!